createdAt,value
2022-08-04T00:02:25.843Z,22.93
2022-08-04T00:05:05.543Z,22.68
2022-08-04T00:07:43.864Z,22.37
2022-08-04T00:10:15.007Z,22.68
2022-08-04T00:12:45.432Z,22.69
2022-08-04T00:15:16.537Z,22.89
2022-08-04T00:18:05.827Z,22.46
2022-08-04T00:20:34.744Z,22.63
2022-08-04T00:23:02.545Z,22.28
2022-08-04T00:25:30.353Z,22.41
2022-08-04T00:28:00.985Z,22.41
2022-08-04T00:30:28.436Z,22.35
2022-08-04T00:32:58.002Z,22.08
2022-08-04T00:35:25.779Z,22.34
2022-08-04T00:37:53.846Z,22.11
2022-08-04T00:40:56.399Z,22.40
2022-08-04T00:43:35.623Z,22.38
2022-08-04T00:46:16.588Z,22.24
2022-08-04T00:49:19.016Z,21.77
2022-08-04T00:52:33.235Z,22.15
2022-08-04T00:55:30.785Z,21.83
2022-08-04T00:58:23.352Z,21.90
2022-08-04T01:01:09.016Z,21.84
2022-08-04T01:04:01.409Z,21.81
2022-08-04T01:07:00.851Z,21.62
2022-08-04T01:09:49.878Z,21.07
2022-08-04T01:12:30.951Z,21.24
2022-08-04T01:15:05.787Z,21.11
2022-08-04T01:17:36.346Z,21.31
2022-08-04T01:20:07.918Z,21.36
2022-08-04T01:22:59.961Z,21.76
2022-08-04T01:25:48.325Z,21.34
2022-08-04T01:28:43.013Z,21.40
2022-08-04T01:31:25.249Z,21.20
2022-08-04T01:34:03.314Z,21.34
2022-08-04T01:36:35.908Z,21.59
2022-08-04T01:39:24.283Z,21.53
2022-08-04T01:41:58.418Z,21.47
2022-08-04T01:44:30.469Z,21.97
2022-08-04T01:46:58.219Z,21.61
2022-08-04T01:49:30.035Z,21.61
2022-08-04T01:52:10.927Z,21.81
2022-08-04T01:54:41.597Z,22.02
2022-08-04T01:57:38.527Z,21.61
2022-08-04T02:00:00.601Z,21.61
2022-08-04T02:02:28.125Z,21.82
2022-08-04T02:04:56.471Z,21.71
2022-08-04T02:07:45.960Z,22.10
2022-08-04T02:10:28.421Z,21.83
2022-08-04T02:13:18.627Z,22.00
2022-08-04T02:16:05.086Z,22.16
2022-08-04T02:18:43.939Z,21.85
2022-08-04T02:21:12.613Z,21.59
2022-08-04T02:23:41.143Z,21.90
2022-08-04T02:26:22.234Z,21.76
2022-08-04T02:29:03.798Z,21.97
2022-08-04T02:31:33.106Z,21.96
2022-08-04T02:34:19.563Z,21.53
2022-08-04T02:36:48.316Z,21.98
2022-08-04T02:39:19.965Z,21.90
2022-08-04T02:41:48.845Z,21.59
2022-08-04T02:44:21.684Z,21.73
2022-08-04T02:46:51.853Z,21.80
2022-08-04T02:49:19.834Z,22.01
2022-08-04T02:51:51.465Z,21.67
2022-08-04T02:54:32.675Z,21.97
2022-08-04T02:57:02.464Z,22.15
2022-08-04T02:59:54.122Z,22.22
2022-08-04T03:02:39.849Z,22.47
2022-08-04T03:05:14.252Z,22.20
2022-08-04T03:07:53.723Z,21.89
2022-08-04T03:10:42.569Z,22.42
2022-08-04T03:13:27.881Z,21.89
2022-08-04T03:16:05.561Z,21.99
2022-08-04T03:19:03.523Z,22.24
2022-08-04T03:21:37.098Z,22.06
2022-08-04T03:24:30.945Z,22.35
2022-08-04T03:27:20.518Z,21.88
2022-08-04T03:30:20.869Z,22.26
2022-08-04T03:33:30.692Z,22.30
2022-08-04T03:36:30.253Z,22.09
2022-08-04T03:38:59.574Z,22.33
2022-08-04T03:41:51.346Z,22.28
2022-08-04T03:44:51.050Z,22.52
2022-08-04T03:47:35.874Z,22.22
2022-08-04T03:50:41.303Z,22.65
2022-08-04T03:53:32.104Z,22.68
2022-08-04T03:56:33.309Z,22.75
2022-08-04T03:59:28.778Z,22.91
2022-08-04T04:02:30.384Z,22.95
2022-08-04T04:05:41.003Z,23.45
2022-08-04T04:08:41.147Z,23.07
2022-08-04T04:11:22.274Z,23.34
2022-08-04T04:14:11.866Z,23.82
2022-08-04T04:16:51.151Z,24.02
2022-08-04T04:19:42.415Z,24.07
2022-08-04T04:22:22.066Z,24.22
2022-08-04T04:24:59.248Z,24.11
2022-08-04T04:27:48.228Z,24.23
2022-08-04T04:30:54.203Z,23.55
2022-08-04T04:33:42.050Z,23.67
2022-08-04T04:36:24.464Z,23.97
2022-08-04T04:39:31.897Z,24.30
2022-08-04T04:42:14.364Z,24.67
2022-08-04T04:45:11.384Z,24.58
2022-08-04T04:48:10.045Z,24.42
2022-08-04T04:50:55.866Z,24.39
2022-08-04T04:53:47.910Z,24.70
2022-08-04T04:56:23.525Z,24.81
2022-08-04T04:58:54.579Z,24.67
2022-08-04T05:01:39.813Z,24.94
2022-08-04T05:04:29.484Z,25.62
2022-08-04T05:07:42.245Z,25.42
2022-08-04T05:10:18.438Z,25.78
2022-08-04T05:14:33.198Z,25.70
2022-08-04T05:15:43.578Z,25.85
2022-08-04T05:18:16.613Z,26.21
2022-08-04T05:20:52.639Z,26.11
2022-08-04T05:23:24.758Z,25.85
2022-08-04T05:26:02.142Z,25.95
2022-08-04T05:28:43.504Z,26.18
2022-08-04T05:31:12.113Z,26.16
2022-08-04T05:33:43.724Z,25.95
2022-08-04T05:36:29.470Z,26.65
2022-08-04T05:39:07.684Z,26.53
2022-08-04T05:41:45.901Z,26.70
2022-08-04T05:44:16.999Z,26.60
2022-08-04T05:46:54.288Z,27.12
2022-08-04T05:49:23.632Z,27.19
2022-08-04T05:51:52.382Z,27.41
2022-08-04T05:54:21.115Z,26.90
2022-08-04T05:56:50.068Z,27.00
2022-08-04T05:59:18.928Z,26.54
2022-08-04T06:01:56.253Z,26.65
2022-08-04T06:04:51.237Z,26.58
2022-08-04T06:07:19.112Z,26.80
2022-08-04T06:09:46.884Z,27.25
2022-08-04T06:12:31.114Z,27.11
2022-08-04T06:14:59.466Z,27.52
2022-08-04T06:18:33.887Z,27.12
2022-08-04T06:20:23.569Z,26.80
2022-08-04T06:22:56.365Z,27.18
2022-08-04T06:25:26.608Z,27.54
2022-08-04T06:27:55.155Z,27.39
2022-08-04T06:30:26.406Z,27.29
2022-08-04T06:33:03.897Z,27.16
2022-08-04T06:35:33.754Z,27.24
2022-08-04T06:38:02.904Z,27.26
2022-08-04T06:40:33.735Z,27.27
2022-08-04T06:43:04.206Z,27.76
2022-08-04T06:45:34.611Z,28.10
2022-08-04T06:48:04.232Z,28.12
2022-08-04T06:51:25.897Z,29.04
2022-08-04T06:53:20.011Z,28.92
2022-08-04T06:55:48.498Z,29.01
2022-08-04T06:58:16.715Z,29.11
2022-08-04T07:00:46.016Z,29.54
2022-08-04T07:03:15.635Z,30.16
2022-08-04T07:05:43.567Z,30.13
2022-08-04T07:08:12.197Z,30.18
2022-08-04T07:10:39.957Z,30.90
2022-08-04T07:13:08.008Z,30.89
2022-08-04T07:15:36.105Z,30.32
2022-08-04T07:18:04.724Z,29.83
2022-08-04T07:20:36.326Z,30.41
2022-08-04T07:23:06.380Z,29.82
2022-08-04T07:26:00.238Z,29.91
2022-08-04T07:28:28.888Z,29.31
2022-08-04T07:30:58.215Z,29.22
2022-08-04T07:33:26.297Z,29.48
2022-08-04T07:36:09.787Z,29.62
2022-08-04T07:38:46.957Z,29.33
2022-08-04T07:41:39.301Z,28.94
2022-08-04T07:44:07.420Z,29.68
2022-08-04T07:46:36.003Z,29.50
2022-08-04T07:49:03.967Z,29.61
2022-08-04T07:51:32.234Z,29.69
2022-08-04T07:54:00.565Z,29.31
2022-08-04T07:56:28.644Z,29.24
2022-08-04T07:58:56.513Z,28.96
2022-08-04T08:01:24.657Z,28.69
2022-08-04T08:03:54.238Z,28.54
2022-08-04T08:06:32.785Z,28.60
2022-08-04T08:09:12.580Z,28.61
2022-08-04T08:12:37.143Z,29.64
2022-08-04T08:14:32.212Z,29.10
2022-08-04T08:17:02.416Z,29.57
2022-08-04T08:19:34.605Z,29.36
2022-08-04T08:22:02.585Z,29.58
2022-08-04T08:24:31.812Z,28.67
2022-08-04T08:27:00.513Z,29.34
2022-08-04T08:29:29.595Z,29.23
2022-08-04T08:32:00.411Z,29.37
2022-08-04T08:34:31.382Z,29.55
2022-08-04T08:37:03.864Z,30.01
2022-08-04T08:39:52.856Z,30.33
2022-08-04T08:42:36.952Z,30.12
2022-08-04T08:45:49.020Z,29.52
2022-08-04T08:48:19.871Z,29.91
2022-08-04T08:50:50.767Z,29.97
2022-08-04T08:53:39.368Z,29.54
2022-08-04T08:56:34.845Z,30.19
2022-08-04T08:59:18.548Z,30.73
2022-08-04T09:01:50.497Z,31.12
2022-08-04T09:04:41.611Z,31.30
2022-08-04T09:07:31.944Z,31.52
2022-08-04T09:10:20.399Z,30.41
2022-08-04T09:13:13.476Z,30.42
2022-08-04T09:15:58.993Z,29.75
2022-08-04T09:18:53.212Z,30.24
2022-08-04T09:21:37.660Z,30.47
2022-08-04T09:24:46.898Z,30.57
2022-08-04T09:27:19.476Z,31.41
2022-08-04T09:29:53.491Z,31.33
2022-08-04T09:32:29.151Z,31.83
2022-08-04T09:35:15.367Z,32.01
2022-08-04T09:37:58.201Z,31.89
2022-08-04T09:40:52.722Z,32.08
2022-08-04T09:44:49.797Z,31.99
2022-08-04T09:46:52.697Z,30.99
2022-08-04T09:49:20.616Z,31.17
2022-08-04T09:51:58.659Z,30.84
2022-08-04T09:54:45.712Z,31.42
2022-08-04T09:57:31.582Z,30.82
2022-08-04T10:00:04.178Z,31.63
2022-08-04T10:03:05.720Z,31.61
2022-08-04T10:06:03.021Z,31.90
2022-08-04T10:09:09.503Z,31.40
2022-08-04T10:12:18.591Z,32.19
2022-08-04T10:15:07.276Z,32.20
2022-08-04T10:17:51.982Z,30.98
2022-08-04T10:20:52.943Z,31.67
2022-08-04T10:23:55.281Z,32.06
2022-08-04T10:26:45.767Z,32.71
2022-08-04T10:29:28.223Z,33.15
2022-08-04T10:32:00.923Z,33.45
2022-08-04T10:34:33.386Z,33.23
2022-08-04T10:37:20.545Z,33.59
2022-08-04T10:40:31.293Z,33.51
2022-08-04T10:43:29.841Z,34.15
2022-08-04T10:46:15.203Z,34.25
2022-08-04T10:48:49.840Z,34.50
2022-08-04T10:51:24.274Z,33.90
2022-08-04T10:54:02.821Z,34.25
2022-08-04T10:56:41.808Z,34.43
2022-08-04T10:59:13.226Z,33.61
2022-08-04T11:02:00.818Z,33.95
2022-08-04T11:04:38.229Z,33.74
2022-08-04T11:07:06.424Z,33.39
2022-08-04T11:09:34.481Z,32.78
2022-08-04T11:12:13.002Z,33.40
2022-08-04T11:14:47.374Z,33.74
2022-08-04T11:17:20.179Z,33.66
2022-08-04T11:20:12.360Z,33.06
2022-08-04T11:23:04.400Z,32.47
2022-08-04T11:25:51.505Z,32.80
2022-08-04T11:28:38.361Z,33.27
2022-08-04T11:31:09.988Z,33.90
2022-08-04T11:33:40.232Z,34.27
2022-08-04T11:36:13.887Z,34.48
2022-08-04T11:38:58.331Z,34.49
2022-08-04T11:41:42.415Z,34.78
2022-08-04T11:44:12.968Z,34.86
2022-08-04T11:46:48.582Z,34.88
2022-08-04T11:49:57.425Z,34.84
2022-08-04T11:52:22.012Z,34.85
2022-08-04T11:54:52.479Z,35.01
2022-08-04T11:57:35.807Z,33.10
2022-08-04T12:00:12.498Z,33.69
2022-08-04T12:02:58.897Z,32.99
2022-08-04T12:05:38.119Z,34.22
2022-08-04T12:08:33.527Z,34.90
2022-08-04T12:11:28.602Z,34.26
2022-08-04T12:14:14.877Z,34.63
2022-08-04T12:17:01.599Z,35.21
2022-08-04T12:20:03.975Z,34.98
2022-08-04T12:22:47.102Z,35.47
2022-08-04T12:25:44.949Z,35.87
2022-08-04T12:28:17.093Z,36.21
2022-08-04T12:30:59.818Z,36.16
2022-08-04T12:34:02.896Z,35.48
2022-08-04T12:36:37.558Z,35.95
2022-08-04T12:39:16.496Z,36.18
2022-08-04T12:41:55.072Z,36.22
2022-08-04T12:44:36.999Z,36.30
2022-08-04T12:47:26.616Z,35.68
2022-08-04T12:50:02.366Z,35.48
2022-08-04T12:55:27.162Z,34.56
2022-08-04T12:57:55.880Z,34.59
2022-08-04T13:00:31.159Z,33.76
2022-08-04T13:03:09.601Z,33.86
2022-08-04T13:05:39.608Z,34.30
2022-08-04T13:08:08.752Z,34.68
2022-08-04T13:10:46.179Z,35.31
2022-08-04T13:13:19.415Z,35.47
2022-08-04T13:16:08.716Z,35.58
2022-08-04T13:18:47.951Z,35.71
2022-08-04T13:21:23.236Z,35.95
2022-08-04T13:24:21.930Z,35.57
2022-08-04T13:27:08.809Z,35.46
2022-08-04T13:29:59.594Z,36.05
2022-08-04T13:32:27.617Z,35.89
2022-08-04T13:34:55.342Z,35.51
2022-08-04T13:37:26.058Z,35.74
2022-08-04T13:39:55.361Z,35.88
2022-08-04T13:42:24.121Z,35.53
2022-08-04T13:44:53.228Z,35.04
2022-08-04T13:47:20.824Z,35.44
2022-08-04T13:50:11.547Z,35.31
2022-08-04T13:52:42.616Z,34.61
2022-08-04T13:55:25.106Z,34.80
2022-08-04T13:57:56.273Z,35.05
2022-08-04T14:00:29.274Z,35.03
2022-08-04T14:03:02.544Z,34.95
2022-08-04T14:05:36.736Z,35.37
2022-08-04T14:08:20.441Z,35.28
2022-08-04T14:10:57.006Z,35.87
2022-08-04T14:13:41.110Z,36.04
2022-08-04T14:16:19.590Z,35.74
2022-08-04T14:18:47.189Z,35.97
2022-08-04T14:21:15.498Z,36.01
2022-08-04T14:23:47.529Z,35.59
2022-08-04T14:26:15.386Z,35.86
2022-08-04T14:29:24.993Z,35.24
2022-08-04T14:31:31.168Z,34.87
2022-08-04T14:34:01.062Z,35.29
2022-08-04T14:37:13.242Z,35.32
2022-08-04T14:40:18.137Z,35.43
2022-08-04T14:42:41.257Z,35.20
2022-08-04T14:45:08.678Z,35.05
2022-08-04T14:47:39.746Z,33.55
2022-08-04T14:50:07.867Z,33.27
2022-08-04T14:52:37.466Z,33.73
2022-08-04T14:55:31.072Z,34.33
2022-08-04T14:58:34.214Z,34.42
2022-08-04T15:00:46.019Z,34.72
2022-08-04T15:03:13.893Z,34.67
2022-08-04T15:06:02.554Z,34.66
2022-08-04T15:08:32.084Z,34.88
2022-08-04T15:11:02.389Z,34.63
2022-08-04T15:13:31.131Z,34.46
2022-08-04T15:16:07.355Z,34.54
2022-08-04T15:18:36.788Z,34.45
2022-08-04T15:21:04.597Z,34.36
2022-08-04T15:23:38.746Z,34.49
2022-08-04T15:26:08.730Z,34.50
2022-08-04T15:28:36.163Z,34.26
2022-08-04T15:31:04.653Z,34.62
2022-08-04T15:33:39.304Z,34.87
2022-08-04T15:36:11.150Z,34.99
2022-08-04T15:38:40.085Z,34.68
2022-08-04T15:41:10.690Z,35.16
2022-08-04T15:43:55.114Z,35.36
2022-08-04T15:46:43.355Z,34.96
2022-08-04T15:49:18.551Z,35.05
2022-08-04T15:51:45.981Z,34.50
2022-08-04T15:54:20.306Z,34.70
2022-08-04T15:57:01.638Z,34.51
2022-08-04T15:59:49.068Z,34.47
2022-08-04T16:02:38.149Z,34.70
2022-08-04T16:05:18.173Z,34.69
2022-08-04T16:07:58.867Z,35.08
2022-08-04T16:10:35.343Z,34.74
2022-08-04T16:13:05.893Z,34.97
2022-08-04T16:15:37.136Z,34.47
2022-08-04T16:18:04.996Z,34.48
2022-08-04T16:20:32.712Z,34.69
2022-08-04T16:23:37.361Z,34.88
2022-08-04T16:26:05.544Z,34.77
2022-08-04T16:28:37.772Z,34.36
2022-08-04T16:31:05.451Z,34.16
2022-08-04T16:33:44.087Z,34.07
2022-08-04T16:36:16.686Z,34.36
2022-08-04T16:39:02.265Z,34.33
2022-08-04T16:41:42.201Z,34.27
2022-08-04T16:44:51.642Z,34.43
2022-08-04T16:47:22.136Z,34.73
2022-08-04T16:50:01.017Z,34.24
2022-08-04T16:52:28.395Z,34.28
2022-08-04T16:54:58.688Z,33.89
2022-08-04T16:57:25.859Z,33.37
2022-08-04T16:59:53.082Z,33.64
2022-08-04T17:02:24.269Z,33.74
2022-08-04T17:04:53.632Z,33.74
2022-08-04T17:08:19.797Z,34.00
2022-08-04T17:10:41.991Z,33.86
2022-08-04T17:14:04.692Z,33.65
2022-08-04T17:16:17.833Z,33.40
2022-08-04T17:18:50.110Z,33.87
2022-08-04T17:21:22.360Z,33.76
2022-08-04T17:24:15.619Z,33.42
2022-08-04T17:26:39.945Z,33.49
2022-08-04T17:29:09.283Z,33.63
2022-08-04T17:31:38.019Z,33.84
2022-08-04T17:34:16.628Z,33.78
2022-08-04T17:36:47.675Z,33.55
2022-08-04T17:39:17.509Z,33.63
2022-08-04T17:41:48.591Z,33.68
2022-08-04T17:44:17.685Z,33.64
2022-08-04T17:49:33.147Z,33.70
2022-08-04T17:52:32.367Z,33.41
2022-08-04T17:55:16.232Z,33.20
2022-08-04T17:57:52.688Z,32.94
2022-08-04T18:00:22.751Z,32.67
2022-08-04T18:02:53.492Z,32.75
2022-08-04T18:05:27.076Z,32.22
2022-08-04T18:08:38.623Z,32.45
2022-08-04T18:11:02.481Z,32.20
2022-08-04T18:13:29.988Z,32.19
2022-08-04T18:16:22.104Z,32.17
2022-08-04T18:19:07.174Z,32.14
2022-08-04T18:21:34.339Z,31.96
2022-08-04T18:24:14.972Z,31.94
2022-08-04T18:26:42.257Z,31.75
2022-08-04T18:29:15.606Z,31.78
2022-08-04T18:31:59.444Z,31.65
2022-08-04T18:34:27.526Z,31.28
2022-08-04T18:36:57.539Z,31.10
2022-08-04T18:40:10.169Z,31.26
2022-08-04T18:42:16.136Z,31.32
2022-08-04T18:44:52.852Z,31.08
2022-08-04T18:47:25.155Z,30.92
2022-08-04T18:50:59.024Z,31.01
2022-08-04T18:52:45.557Z,30.85
2022-08-04T18:55:55.356Z,30.75
2022-08-04T18:58:06.261Z,30.60
2022-08-04T19:00:39.381Z,30.60
2022-08-04T19:03:16.409Z,30.49
2022-08-04T19:05:51.290Z,30.36
2022-08-04T19:08:33.371Z,30.19
2022-08-04T19:11:01.818Z,30.20
2022-08-04T19:13:54.669Z,30.04
2022-08-04T19:16:29.729Z,29.90
2022-08-04T19:18:57.671Z,29.96
2022-08-04T19:22:00.183Z,29.97
2022-08-04T19:24:31.227Z,29.91
2022-08-04T19:27:08.051Z,29.92
2022-08-04T19:29:40.738Z,29.69
2022-08-04T19:32:13.942Z,29.72
2022-08-04T19:34:46.452Z,29.65
2022-08-04T19:40:04.657Z,29.52
2022-08-04T19:42:32.456Z,29.35
2022-08-04T19:44:59.906Z,29.39
2022-08-04T19:48:17.905Z,29.30
2022-08-04T19:50:17.199Z,29.13
2022-08-04T19:52:51.418Z,29.18
2022-08-04T19:55:37.319Z,29.05
2022-08-04T19:58:06.221Z,28.86
2022-08-04T20:00:35.158Z,28.84
2022-08-04T20:03:11.797Z,28.76
2022-08-04T20:05:55.201Z,28.75
2022-08-04T20:08:32.230Z,28.73
2022-08-04T20:11:00.401Z,28.38
2022-08-04T20:13:30.876Z,28.14
2022-08-04T20:16:28.868Z,27.99
2022-08-04T20:19:00.938Z,28.22
2022-08-04T20:21:54.362Z,28.19
2022-08-04T20:24:36.400Z,27.76
2022-08-04T20:27:08.815Z,27.87
2022-08-04T20:29:49.189Z,27.71
2022-08-04T20:35:07.757Z,27.59
2022-08-04T20:37:55.174Z,27.47
2022-08-04T20:40:27.767Z,27.37
2022-08-04T20:42:57.328Z,26.83
2022-08-04T20:45:56.875Z,26.94
2022-08-04T20:48:13.123Z,26.64
2022-08-04T20:50:40.510Z,26.72
2022-08-04T20:53:16.274Z,26.82
2022-08-04T20:55:55.054Z,26.82
2022-08-04T20:58:27.490Z,26.81
2022-08-04T21:00:55.781Z,26.68
2022-08-04T21:03:49.238Z,26.68
2022-08-04T21:06:11.686Z,26.84
2022-08-04T21:08:38.908Z,26.57
2022-08-04T21:11:06.722Z,26.49
2022-08-04T21:13:44.449Z,26.60
2022-08-04T21:16:55.487Z,26.62
2022-08-04T21:21:54.682Z,26.26
2022-08-04T21:24:26.235Z,26.39
2022-08-04T21:26:56.669Z,26.37
2022-08-04T21:29:34.830Z,26.47
2022-08-04T21:32:03.958Z,26.46
2022-08-04T21:34:37.934Z,26.17
2022-08-04T21:37:09.115Z,25.95
2022-08-04T21:39:50.335Z,26.19
2022-08-04T21:42:29.768Z,26.28
2022-08-04T21:44:58.096Z,26.26
2022-08-04T21:47:25.427Z,25.87
2022-08-04T21:49:56.448Z,25.66
2022-08-04T21:52:24.817Z,25.93
2022-08-04T21:54:54.469Z,25.94
2022-08-04T21:57:24.678Z,25.73
2022-08-04T21:59:52.782Z,25.56
2022-08-04T22:02:20.002Z,25.50
2022-08-04T22:04:48.872Z,25.59
2022-08-04T22:07:16.974Z,25.44
2022-08-04T22:10:00.347Z,25.18
2022-08-04T22:12:30.536Z,25.07
2022-08-04T22:15:01.232Z,25.06
2022-08-04T22:17:48.763Z,25.32
2022-08-04T22:23:16.956Z,25.09
2022-08-04T22:25:55.701Z,24.86
2022-08-04T22:28:28.432Z,24.74
2022-08-04T22:30:56.437Z,24.89
2022-08-04T22:33:23.587Z,24.87
2022-08-04T22:36:11.710Z,24.87
2022-08-04T22:38:48.610Z,24.79
2022-08-04T22:41:20.268Z,24.94
2022-08-04T22:43:54.775Z,24.88
2022-08-04T22:46:26.343Z,24.66
2022-08-04T22:48:55.298Z,24.65
2022-08-04T22:51:23.834Z,24.77
2022-08-04T22:53:54.092Z,24.63
2022-08-04T22:56:38.707Z,24.61
2022-08-04T22:59:11.400Z,24.85
2022-08-04T23:01:57.924Z,24.51
2022-08-04T23:04:26.821Z,24.31
2022-08-04T23:06:54.485Z,24.21
2022-08-04T23:09:48.870Z,24.51
2022-08-04T23:12:24.394Z,24.71
2022-08-04T23:14:52.931Z,24.36
2022-08-04T23:17:20.634Z,24.32
2022-08-04T23:19:57.748Z,23.58
2022-08-04T23:22:41.698Z,24.06
2022-08-04T23:25:16.132Z,23.82
2022-08-04T23:27:50.716Z,24.21
2022-08-04T23:30:29.542Z,24.29
2022-08-04T23:32:58.152Z,24.31
2022-08-04T23:35:26.350Z,24.24
2022-08-04T23:37:57.848Z,24.26
2022-08-04T23:40:32.399Z,23.89
2022-08-04T23:43:01.951Z,23.93
2022-08-04T23:46:05.187Z,24.26
2022-08-04T23:48:19.329Z,24.10
2022-08-04T23:50:48.404Z,24.14
2022-08-04T23:53:18.687Z,23.89
2022-08-04T23:55:50.036Z,23.67
2022-08-04T23:58:20.907Z,23.41
